createdAt,value
2023-01-13T00:00:58.234Z,174.80
2023-01-13T00:03:25.183Z,220.30
2023-01-13T00:05:51.728Z,183.20
2023-01-13T00:08:18.280Z,151.30
2023-01-13T00:10:47.478Z,165.20
2023-01-13T00:13:14.424Z,165.40
2023-01-13T00:15:40.982Z,166.80
2023-01-13T00:18:07.620Z,149.30
2023-01-13T00:20:34.454Z,245.70
2023-01-13T00:23:00.995Z,139.00
2023-01-13T00:25:27.845Z,122.10
2023-01-13T00:27:54.392Z,140.30
2023-01-13T00:30:21.231Z,115.60
2023-01-13T00:32:47.774Z,148.70
2023-01-13T00:35:14.332Z,137.30
2023-01-13T00:37:40.857Z,137.20
2023-01-13T00:40:08.615Z,143.90
2023-01-13T00:42:35.105Z,119.00
2023-01-13T00:45:01.715Z,100.20
2023-01-13T00:47:28.348Z,96.20
2023-01-13T00:49:55.693Z,105.50
2023-01-13T00:52:22.267Z,117.90
2023-01-13T00:54:49.103Z,114.90
2023-01-13T00:57:15.647Z,111.80
2023-01-13T00:59:42.284Z,110.40
2023-01-13T01:02:08.983Z,115.50
2023-01-13T01:04:35.677Z,118.10
2023-01-13T01:07:02.423Z,111.70
2023-01-13T01:09:29.067Z,119.80
2023-01-13T01:11:55.627Z,111.00
2023-01-13T01:14:22.260Z,104.60
2023-01-13T01:16:49.099Z,99.30
2023-01-13T01:19:15.643Z,89.10
2023-01-13T01:21:42.181Z,82.00
2023-01-13T01:24:09.991Z,95.30
2023-01-13T01:26:36.597Z,90.30
2023-01-13T01:29:03.136Z,89.20
2023-01-13T01:31:32.165Z,84.20
2023-01-13T01:33:59.967Z,98.20
2023-01-13T01:36:27.883Z,90.70
2023-01-13T01:38:56.991Z,77.90
2023-01-13T01:41:25.879Z,87.20
2023-01-13T01:43:57.855Z,83.50
2023-01-13T01:46:24.738Z,90.90
2023-01-13T01:48:51.644Z,85.50
2023-01-13T01:51:18.385Z,75.90
2023-01-13T01:53:45.036Z,79.40
2023-01-13T01:56:11.776Z,82.00
2023-01-13T01:58:46.511Z,81.00
2023-01-13T02:01:14.765Z,76.10
2023-01-13T02:03:47.075Z,71.70
2023-01-13T02:06:14.814Z,72.50
2023-01-13T02:08:41.491Z,74.20
2023-01-13T02:11:08.336Z,75.50
2023-01-13T02:13:34.882Z,67.20
2023-01-13T02:16:22.150Z,76.60
2023-01-13T02:19:33.400Z,69.80
2023-01-13T02:22:37.932Z,52.10
2023-01-13T02:25:40.123Z,75.20
2023-01-13T02:28:42.287Z,73.70
2023-01-13T02:31:15.252Z,74.20
2023-01-13T02:34:09.569Z,82.70
2023-01-13T02:36:42.191Z,69.90
2023-01-13T02:39:35.531Z,65.60
2023-01-13T02:42:07.909Z,56.40
2023-01-13T02:44:46.848Z,54.40
2023-01-13T02:47:21.331Z,63.30
2023-01-13T02:49:56.308Z,58.40
2023-01-13T02:52:41.073Z,52.60
2023-01-13T02:55:16.014Z,46.80
2023-01-13T02:57:44.993Z,52.60
2023-01-13T03:00:13.493Z,49.20
2023-01-13T03:02:40.196Z,48.70
2023-01-13T03:05:07.413Z,47.30
2023-01-13T03:08:11.339Z,60.90
2023-01-13T03:10:59.164Z,58.80
2023-01-13T03:13:36.965Z,53.00
2023-01-13T03:16:31.452Z,56.10
2023-01-13T03:19:05.602Z,54.90
2023-01-13T03:21:35.198Z,56.30
2023-01-13T03:24:20.677Z,69.20
2023-01-13T03:27:06.181Z,66.80
2023-01-13T03:29:41.318Z,58.70
2023-01-13T03:32:18.084Z,57.40
2023-01-13T03:34:50.240Z,53.30
2023-01-13T03:37:20.984Z,46.10
2023-01-13T03:39:53.099Z,54.80
2023-01-13T03:42:25.968Z,53.20
2023-01-13T03:44:59.680Z,52.10
2023-01-13T03:47:48.108Z,59.10
2023-01-13T03:50:28.322Z,56.90
2023-01-13T03:53:02.391Z,57.50
2023-01-13T03:55:34.755Z,61.90
2023-01-13T03:58:20.013Z,62.50
2023-01-13T04:01:11.327Z,53.50
2023-01-13T04:04:03.512Z,54.80
2023-01-13T04:06:39.399Z,47.70
2023-01-13T04:09:15.742Z,51.00
2023-01-13T04:12:08.310Z,48.50
2023-01-13T04:14:36.516Z,45.90
2023-01-13T04:17:03.324Z,50.00
2023-01-13T04:19:29.787Z,58.10
2023-01-13T04:21:56.369Z,55.60
2023-01-13T04:24:22.964Z,57.70
2023-01-13T04:26:49.548Z,51.30
2023-01-13T04:29:16.138Z,54.60
2023-01-13T04:31:43.111Z,51.00
2023-01-13T04:34:13.447Z,52.40
2023-01-13T04:36:40.171Z,52.20
2023-01-13T04:39:06.643Z,58.00
2023-01-13T04:41:33.087Z,50.90
2023-01-13T04:43:59.530Z,52.00
2023-01-13T04:46:26.118Z,56.20
2023-01-13T04:48:52.598Z,61.50
2023-01-13T04:51:19.006Z,64.60
2023-01-13T04:53:45.547Z,51.80
2023-01-13T04:56:12.096Z,49.00
2023-01-13T04:58:38.549Z,50.90
2023-01-13T05:01:05.117Z,47.60
2023-01-13T05:03:31.810Z,47.60
2023-01-13T05:05:58.348Z,49.00
2023-01-13T05:08:24.905Z,48.80
2023-01-13T05:10:51.424Z,53.90
2023-01-13T05:13:18.078Z,50.00
2023-01-13T05:15:44.674Z,47.50
2023-01-13T05:18:11.872Z,47.00
2023-01-13T05:20:38.989Z,46.40
2023-01-13T05:23:05.563Z,45.10
2023-01-13T05:25:33.715Z,43.10
2023-01-13T05:28:00.745Z,41.30
2023-01-13T05:30:29.732Z,44.10
2023-01-13T05:32:56.881Z,46.60
2023-01-13T05:35:24.213Z,41.90
2023-01-13T05:37:50.913Z,42.60
2023-01-13T05:40:18.939Z,53.40
2023-01-13T05:42:45.501Z,50.40
2023-01-13T05:45:12.940Z,46.80
2023-01-13T05:47:39.688Z,53.50
2023-01-13T05:50:06.736Z,43.70
2023-01-13T05:52:33.390Z,47.80
2023-01-13T05:54:59.934Z,46.60
2023-01-13T05:57:26.405Z,44.60
2023-01-13T05:59:53.015Z,48.80
2023-01-13T06:02:19.424Z,54.30
2023-01-13T06:04:46.044Z,261.40
2023-01-13T06:07:12.630Z,81.80
2023-01-13T06:09:39.063Z,114.20
2023-01-13T06:12:06.299Z,97.80
2023-01-13T06:14:32.781Z,103.40
2023-01-13T06:16:59.820Z,106.50
2023-01-13T06:19:26.463Z,111.80
2023-01-13T06:21:56.380Z,121.30
2023-01-13T06:24:22.984Z,119.60
2023-01-13T06:26:49.514Z,91.70
2023-01-13T06:29:16.033Z,96.70
2023-01-13T06:31:43.263Z,95.30
2023-01-13T06:34:14.159Z,101.10
2023-01-13T06:36:46.159Z,105.20
2023-01-13T06:39:18.171Z,404.40
2023-01-13T06:41:47.475Z,305.20
2023-01-13T06:44:14.242Z,312.90
2023-01-13T06:46:40.806Z,176.60
2023-01-13T06:49:08.216Z,104.90
2023-01-13T06:51:35.038Z,90.50
2023-01-13T06:54:01.746Z,95.70
2023-01-13T06:56:28.207Z,91.80
2023-01-13T06:58:54.663Z,87.60
2023-01-13T07:01:21.401Z,116.30
2023-01-13T07:03:48.161Z,88.30
2023-01-13T07:06:14.619Z,80.10
2023-01-13T07:08:41.258Z,72.80
2023-01-13T07:11:07.765Z,68.20
2023-01-13T07:13:37.031Z,66.00
2023-01-13T07:16:06.080Z,68.80
2023-01-13T07:18:35.249Z,68.70
2023-01-13T07:21:07.158Z,70.90
2023-01-13T07:23:36.409Z,89.10
2023-01-13T07:26:03.458Z,101.60
2023-01-13T07:28:30.675Z,93.90
2023-01-13T07:30:58.220Z,71.60
2023-01-13T07:33:25.481Z,71.80
2023-01-13T07:36:00.179Z,95.60
2023-01-13T07:38:27.308Z,93.20
2023-01-13T07:40:53.776Z,132.00
2023-01-13T07:43:20.373Z,175.40
2023-01-13T07:45:47.034Z,108.60
2023-01-13T07:48:13.725Z,79.30
2023-01-13T07:50:41.560Z,89.30
2023-01-13T07:53:09.179Z,102.60
2023-01-13T07:55:35.625Z,108.60
2023-01-13T07:58:02.289Z,147.60
2023-01-13T08:00:29.010Z,111.30
2023-01-13T08:02:55.477Z,96.70
2023-01-13T08:05:22.032Z,88.80
2023-01-13T08:07:48.425Z,90.20
2023-01-13T08:10:15.179Z,87.20
2023-01-13T08:12:41.599Z,80.60
2023-01-13T08:15:20.213Z,72.80
2023-01-13T08:17:46.734Z,81.00
2023-01-13T08:20:13.255Z,80.00
2023-01-13T08:22:39.638Z,68.50
2023-01-13T08:25:06.761Z,63.90
2023-01-13T08:27:34.173Z,65.20
2023-01-13T08:30:00.649Z,68.30
2023-01-13T08:32:27.269Z,77.80
2023-01-13T08:34:53.988Z,83.80
2023-01-13T08:37:20.528Z,93.20
2023-01-13T08:39:47.167Z,123.30
2023-01-13T08:42:13.603Z,148.10
2023-01-13T08:44:40.073Z,118.60
2023-01-13T08:47:06.596Z,92.70
2023-01-13T08:49:33.145Z,99.10
2023-01-13T08:51:59.886Z,95.90
2023-01-13T08:54:26.440Z,94.90
2023-01-13T08:56:52.935Z,95.60
2023-01-13T08:59:20.377Z,99.90
2023-01-13T09:01:47.044Z,96.10
2023-01-13T09:04:19.868Z,110.50
2023-01-13T09:06:48.041Z,93.90
2023-01-13T09:09:15.082Z,94.00
2023-01-13T09:11:44.157Z,80.00
2023-01-13T09:14:10.729Z,75.40
2023-01-13T09:16:37.257Z,84.00
2023-01-13T09:19:03.678Z,91.00
2023-01-13T09:21:30.441Z,112.30
2023-01-13T09:23:56.873Z,119.10
2023-01-13T09:26:23.421Z,131.00
2023-01-13T09:28:50.067Z,125.60
2023-01-13T09:31:16.693Z,143.50
2023-01-13T09:33:43.255Z,127.90
2023-01-13T09:36:09.760Z,171.80
2023-01-13T09:38:36.180Z,307.60
2023-01-13T09:41:02.654Z,139.70
2023-01-13T09:43:37.808Z,132.00
2023-01-13T09:46:31.026Z,122.90
2023-01-13T09:48:59.146Z,116.60
2023-01-13T09:51:39.137Z,184.30
2023-01-13T09:54:20.504Z,122.00
2023-01-13T09:56:47.220Z,103.30
2023-01-13T09:59:14.721Z,96.40
2023-01-13T10:02:00.287Z,120.30
2023-01-13T10:04:27.862Z,117.10
2023-01-13T10:07:02.673Z,104.70
2023-01-13T10:09:49.089Z,101.50
2023-01-13T10:12:22.743Z,68.70
2023-01-13T10:14:55.596Z,71.10
2023-01-13T10:17:48.035Z,69.60
2023-01-13T10:20:20.253Z,67.40
2023-01-13T10:23:03.090Z,54.80
2023-01-13T10:25:37.098Z,50.20
2023-01-13T10:28:14.109Z,49.70
2023-01-13T10:30:43.359Z,32.10
2023-01-13T10:33:32.527Z,27.00
2023-01-13T10:36:12.697Z,22.30
2023-01-13T10:38:41.433Z,16.30
2023-01-13T10:41:17.038Z,12.70
2023-01-13T10:43:58.521Z,15.40
2023-01-13T10:48:54.468Z,13.60
2023-01-13T10:51:29.664Z,9.10
2023-01-13T10:53:59.327Z,10.80
2023-01-13T10:56:29.908Z,12.40
2023-01-13T10:59:16.982Z,9.20
2023-01-13T11:02:24.859Z,8.30
2023-01-13T11:04:58.731Z,11.20
2023-01-13T11:07:35.709Z,10.90
2023-01-13T11:10:23.609Z,10.80
2023-01-13T11:13:05.544Z,12.10
2023-01-13T11:15:55.398Z,12.40
2023-01-13T11:18:39.476Z,10.50
2023-01-13T11:21:37.073Z,9.70
2023-01-13T11:24:35.838Z,10.40
2023-01-13T11:27:13.746Z,10.50
2023-01-13T11:30:17.674Z,10.40
2023-01-13T11:32:53.415Z,15.20
2023-01-13T11:35:21.909Z,14.40
2023-01-13T11:37:53.719Z,10.40
2023-01-13T11:40:41.668Z,13.40
2023-01-13T11:43:35.130Z,10.50
2023-01-13T11:46:01.906Z,9.00
2023-01-13T11:48:32.487Z,12.70
2023-01-13T11:51:10.930Z,10.60
2023-01-13T11:54:03.542Z,11.10
2023-01-13T11:56:45.868Z,9.90
2023-01-13T11:59:12.462Z,13.10
2023-01-13T12:02:01.073Z,11.60
2023-01-13T12:04:38.960Z,14.20
2023-01-13T12:07:17.126Z,11.00
2023-01-13T12:10:13.092Z,10.60
2023-01-13T12:12:54.193Z,16.50
2023-01-13T12:15:20.949Z,16.40
2023-01-13T12:18:11.830Z,13.80
2023-01-13T12:20:56.882Z,18.50
2023-01-13T12:23:35.241Z,15.20
2023-01-13T12:26:08.028Z,15.30
2023-01-13T12:28:53.806Z,13.80
2023-01-13T12:31:22.429Z,10.40
2023-01-13T12:34:04.864Z,13.90
2023-01-13T12:36:47.639Z,9.60
2023-01-13T12:39:24.208Z,8.80
2023-01-13T12:42:06.275Z,11.60
2023-01-13T12:44:32.752Z,15.40
2023-01-13T12:47:00.672Z,12.60
2023-01-13T12:49:35.089Z,11.20
2023-01-13T12:52:07.528Z,9.70
2023-01-13T12:54:53.936Z,9.90
2023-01-13T12:57:26.963Z,10.00
2023-01-13T12:59:59.362Z,14.90
2023-01-13T13:03:09.862Z,12.30
2023-01-13T13:05:51.184Z,13.70
2023-01-13T13:08:22.931Z,11.10
2023-01-13T13:11:18.433Z,11.70
2023-01-13T13:13:48.675Z,11.90
2023-01-13T13:16:27.168Z,10.20
2023-01-13T13:19:19.507Z,12.60
2023-01-13T13:22:14.347Z,9.20
2023-01-13T13:24:42.705Z,9.50
2023-01-13T13:27:21.681Z,13.40
2023-01-13T13:30:01.844Z,12.90
2023-01-13T13:32:56.086Z,33.20
2023-01-13T13:35:55.431Z,47.40
2023-01-13T13:39:26.823Z,18.10
2023-01-13T13:42:12.151Z,17.70
2023-01-13T13:44:48.131Z,13.50
2023-01-13T13:47:15.067Z,11.80
2023-01-13T13:49:45.820Z,15.70
2023-01-13T13:52:22.269Z,11.60
2023-01-13T13:54:55.595Z,10.10
2023-01-13T13:57:25.194Z,11.60
2023-01-13T13:59:55.844Z,21.90
2023-01-13T14:02:47.053Z,16.50
2023-01-13T14:05:18.507Z,15.00
2023-01-13T14:07:48.309Z,11.80
2023-01-13T14:10:23.227Z,14.60
2023-01-13T14:12:49.849Z,11.70
2023-01-13T14:15:28.645Z,13.40
2023-01-13T14:17:55.265Z,14.20
2023-01-13T14:20:21.932Z,15.80
2023-01-13T14:22:51.556Z,19.50
2023-01-13T14:25:38.923Z,16.10
2023-01-13T14:28:28.678Z,16.40
2023-01-13T14:30:57.165Z,19.30
2023-01-13T14:33:38.648Z,22.20
2023-01-13T14:36:17.349Z,20.30
2023-01-13T14:38:47.200Z,18.10
2023-01-13T14:41:21.703Z,21.50
2023-01-13T14:43:51.128Z,24.50
2023-01-13T14:46:17.961Z,25.60
2023-01-13T14:48:46.411Z,28.10
2023-01-13T14:51:21.714Z,23.90
2023-01-13T14:53:49.380Z,59.00
2023-01-13T14:56:52.269Z,130.50
2023-01-13T14:59:41.880Z,47.50
2023-01-13T15:02:30.358Z,49.60
2023-01-13T15:05:17.739Z,30.60
2023-01-13T15:07:54.628Z,37.60
2023-01-13T15:10:25.482Z,34.30
2023-01-13T15:12:54.414Z,33.60
2023-01-13T15:15:30.959Z,31.60
2023-01-13T15:17:57.567Z,34.80
2023-01-13T15:20:24.954Z,49.20
2023-01-13T15:22:52.908Z,37.70
2023-01-13T15:25:19.943Z,16.80
2023-01-13T15:27:48.605Z,21.20
2023-01-13T15:30:23.819Z,24.80
2023-01-13T15:32:51.971Z,25.10
2023-01-13T15:35:20.141Z,19.20
2023-01-13T15:37:49.255Z,13.70
2023-01-13T15:40:25.604Z,15.40
2023-01-13T15:42:52.150Z,17.60
2023-01-13T15:45:18.545Z,33.30
2023-01-13T15:47:45.192Z,16.00
2023-01-13T15:50:16.642Z,25.40
2023-01-13T15:52:43.159Z,22.30
2023-01-13T15:55:10.960Z,41.60
2023-01-13T15:57:39.487Z,30.30
2023-01-13T16:00:19.785Z,25.10
2023-01-13T16:02:46.622Z,20.50
2023-01-13T16:05:13.348Z,10.20
2023-01-13T16:07:39.813Z,11.90
2023-01-13T16:10:14.894Z,14.00
2023-01-13T16:12:41.406Z,27.70
2023-01-13T16:15:08.522Z,36.40
2023-01-13T16:17:35.540Z,24.20
2023-01-13T16:20:02.231Z,21.20
2023-01-13T16:22:28.637Z,16.20
2023-01-13T16:24:55.092Z,18.00
2023-01-13T16:27:24.228Z,19.40
2023-01-13T16:29:52.516Z,22.00
2023-01-13T16:32:19.129Z,18.70
2023-01-13T16:34:45.695Z,21.30
2023-01-13T16:37:20.123Z,17.30
2023-01-13T16:39:48.011Z,17.60
2023-01-13T16:42:14.963Z,18.50
2023-01-13T16:44:41.601Z,23.30
2023-01-13T16:47:16.673Z,17.00
2023-01-13T16:49:43.908Z,17.70
2023-01-13T16:52:10.782Z,14.10
2023-01-13T16:54:37.242Z,23.60
2023-01-13T16:57:04.050Z,14.30
2023-01-13T16:59:30.471Z,19.00
2023-01-13T17:01:56.985Z,21.10
2023-01-13T17:04:23.713Z,19.80
2023-01-13T17:07:07.570Z,20.40
2023-01-13T17:09:34.383Z,16.40
2023-01-13T17:12:01.612Z,17.00
2023-01-13T17:14:28.073Z,13.40
2023-01-13T17:16:57.956Z,15.00
2023-01-13T17:19:24.902Z,16.10
2023-01-13T17:21:51.499Z,18.90
2023-01-13T17:24:18.141Z,16.30
2023-01-13T17:26:49.851Z,19.40
2023-01-13T17:29:22.382Z,19.50
2023-01-13T17:31:50.481Z,17.80
2023-01-13T17:34:18.010Z,23.20
2023-01-13T17:36:44.861Z,18.40
2023-01-13T17:39:21.443Z,15.40
2023-01-13T17:41:48.279Z,15.10
2023-01-13T17:44:16.962Z,18.60
2023-01-13T17:46:44.217Z,16.90
2023-01-13T17:49:11.877Z,14.60
2023-01-13T17:51:38.311Z,12.30
2023-01-13T17:54:04.865Z,13.30
2023-01-13T17:56:31.687Z,14.10
2023-01-13T17:58:58.198Z,15.10
2023-01-13T18:01:24.768Z,12.10
2023-01-13T18:03:51.543Z,14.10
2023-01-13T18:06:22.066Z,15.60
2023-01-13T18:08:49.944Z,13.70
2023-01-13T18:11:18.306Z,16.30
2023-01-13T18:13:49.008Z,16.30
2023-01-13T18:16:17.708Z,16.60
2023-01-13T18:18:47.673Z,17.30
2023-01-13T18:21:25.654Z,18.50
2023-01-13T18:23:52.858Z,20.00
2023-01-13T18:26:20.806Z,17.20
2023-01-13T18:28:47.352Z,25.50
2023-01-13T18:31:13.907Z,18.00
2023-01-13T18:33:40.400Z,17.60
2023-01-13T18:36:08.032Z,20.30
2023-01-13T18:38:34.529Z,15.50
2023-01-13T18:41:00.977Z,16.60
2023-01-13T18:43:27.528Z,17.60
2023-01-13T18:45:53.996Z,15.40
2023-01-13T18:48:20.620Z,17.60
2023-01-13T18:50:47.149Z,34.00
2023-01-13T18:53:13.638Z,18.90
2023-01-13T18:55:40.227Z,16.30
2023-01-13T18:58:06.780Z,17.70
2023-01-13T19:00:33.526Z,22.20
2023-01-13T19:05:34.192Z,23.40
2023-01-13T19:08:00.714Z,19.80
2023-01-13T19:10:27.357Z,16.60
2023-01-13T19:12:53.995Z,19.40
2023-01-13T19:15:20.656Z,20.80
2023-01-13T19:17:47.088Z,20.60
2023-01-13T19:20:13.576Z,26.80
2023-01-13T19:22:40.372Z,35.20
2023-01-13T19:25:07.100Z,38.10
2023-01-13T19:27:33.587Z,33.30
2023-01-13T19:30:00.083Z,32.20
2023-01-13T19:32:27.986Z,37.40
2023-01-13T19:34:55.160Z,55.30
2023-01-13T19:37:21.834Z,56.30
2023-01-13T19:39:48.281Z,67.70
2023-01-13T19:42:14.850Z,74.90
2023-01-13T19:44:41.387Z,74.10
2023-01-13T19:47:07.932Z,67.90
2023-01-13T19:49:34.579Z,74.20
2023-01-13T19:52:01.107Z,80.50
2023-01-13T19:54:28.013Z,140.10
2023-01-13T19:56:54.577Z,134.60
2023-01-13T19:59:21.153Z,140.70
2023-01-13T20:01:50.663Z,170.60
2023-01-13T20:04:17.530Z,167.60
2023-01-13T20:06:44.556Z,97.20
2023-01-13T20:09:11.611Z,209.70
2023-01-13T20:11:38.457Z,215.30
2023-01-13T20:14:05.307Z,154.40
2023-01-13T20:16:32.052Z,166.80
2023-01-13T20:18:58.899Z,190.70
2023-01-13T20:21:25.438Z,135.20
2023-01-13T20:23:53.045Z,146.80
2023-01-13T20:26:20.879Z,170.50
2023-01-13T20:28:47.933Z,187.10
2023-01-13T20:31:15.842Z,183.00
2023-01-13T20:33:42.648Z,210.90
2023-01-13T20:36:27.625Z,214.70
2023-01-13T20:38:58.106Z,239.60
2023-01-13T20:41:25.112Z,207.30
2023-01-13T20:43:52.946Z,256.20
2023-01-13T20:46:20.078Z,167.00
2023-01-13T20:48:46.864Z,193.40
2023-01-13T20:51:14.316Z,187.90
2023-01-13T20:53:40.771Z,188.80
2023-01-13T20:56:08.757Z,155.40
2023-01-13T20:58:38.436Z,134.70
2023-01-13T21:01:05.707Z,102.10
2023-01-13T21:03:32.495Z,126.10
2023-01-13T21:05:59.009Z,117.50
2023-01-13T21:08:25.713Z,113.60
2023-01-13T21:10:52.282Z,83.90
2023-01-13T21:13:18.711Z,79.50
2023-01-13T21:15:48.535Z,66.20
2023-01-13T21:18:15.048Z,60.60
2023-01-13T21:20:41.618Z,54.70
2023-01-13T21:23:08.885Z,61.00
2023-01-13T21:25:35.643Z,96.50
2023-01-13T21:28:02.672Z,46.20
2023-01-13T21:30:29.223Z,49.60
2023-01-13T21:32:55.668Z,61.00
2023-01-13T21:35:22.213Z,56.50
2023-01-13T21:37:48.725Z,55.50
2023-01-13T21:40:15.682Z,57.20
2023-01-13T21:42:42.221Z,64.50
2023-01-13T21:45:10.385Z,71.70
2023-01-13T21:47:36.945Z,84.50
2023-01-13T21:50:06.941Z,117.20
2023-01-13T21:52:33.509Z,129.10
2023-01-13T21:54:59.941Z,75.50
2023-01-13T21:57:27.727Z,61.30
2023-01-13T21:59:54.399Z,59.60
2023-01-13T22:02:23.917Z,54.10
2023-01-13T22:04:51.421Z,26.30
2023-01-13T22:07:18.911Z,34.50
2023-01-13T22:09:45.421Z,30.40
2023-01-13T22:12:12.061Z,27.40
2023-01-13T22:14:38.601Z,23.90
2023-01-13T22:17:05.258Z,24.60
2023-01-13T22:19:31.687Z,27.10
2023-01-13T22:21:58.618Z,29.50
2023-01-13T22:24:25.177Z,37.70
2023-01-13T22:26:51.638Z,35.40
2023-01-13T22:29:18.104Z,30.20
2023-01-13T22:31:44.615Z,37.00
2023-01-13T22:34:12.467Z,35.30
2023-01-13T22:36:39.004Z,28.60
2023-01-13T22:39:05.449Z,33.40
2023-01-13T22:41:32.151Z,41.60
2023-01-13T22:43:58.881Z,35.60
2023-01-13T22:46:25.311Z,31.00
2023-01-13T22:48:51.737Z,33.60
2023-01-13T22:51:18.220Z,35.20
2023-01-13T22:53:45.122Z,28.00
2023-01-13T22:56:20.440Z,23.90
2023-01-13T22:58:46.981Z,27.10
2023-01-13T23:01:16.237Z,29.80
2023-01-13T23:03:43.342Z,24.70
2023-01-13T23:06:09.878Z,21.70
2023-01-13T23:08:36.725Z,19.70
2023-01-13T23:11:09.982Z,38.00
2023-01-13T23:13:37.805Z,47.10
2023-01-13T23:16:08.512Z,47.90
2023-01-13T23:18:35.374Z,59.90
2023-01-13T23:21:07.753Z,62.90
2023-01-13T23:23:34.801Z,54.60
2023-01-13T23:26:27.660Z,58.00
2023-01-13T23:28:58.582Z,48.70
2023-01-13T23:31:25.042Z,57.50
2023-01-13T23:33:51.590Z,56.70
2023-01-13T23:36:20.765Z,59.40
2023-01-13T23:38:47.746Z,61.60
2023-01-13T23:41:16.707Z,63.70
2023-01-13T23:43:43.459Z,54.70
2023-01-13T23:46:13.363Z,61.60
2023-01-13T23:48:40.449Z,58.90
2023-01-13T23:51:10.613Z,60.00
2023-01-13T23:53:46.600Z,62.60
2023-01-13T23:56:19.115Z,72.20
2023-01-13T23:58:46.517Z,68.50
